sensor_id;sensor_type;location;lat;lon;timestamp;P1;durP1;ratioP1;P2;durP2;ratioP2
22711;SDS011;11523;50.390;8.072;2023-03-01T00:00:16;21.98;;;15.00;;
22711;SDS011;11523;50.390;8.072;2023-03-01T00:02:42;23.42;;;15.30;;
22711;SDS011;11523;50.390;8.072;2023-03-01T00:05:08;23.77;;;15.13;;
22711;SDS011;11523;50.390;8.072;2023-03-01T00:07:34;26.70;;;15.25;;
22711;SDS011;11523;50.390;8.072;2023-03-01T00:10:00;23.50;;;14.20;;
22711;SDS011;11523;50.390;8.072;2023-03-01T00:12:26;19.75;;;14.27;;
22711;SDS011;11523;50.390;8.072;2023-03-01T00:14:52;21.63;;;14.15;;
22711;SDS011;11523;50.390;8.072;2023-03-01T00:17:18;22.50;;;15.40;;
22711;SDS011;11523;50.390;8.072;2023-03-01T00:19:44;23.83;;;14.43;;
22711;SDS011;11523;50.390;8.072;2023-03-01T00:22:10;21.88;;;14.32;;
22711;SDS011;11523;50.390;8.072;2023-03-01T00:24:36;23.15;;;14.85;;
22711;SDS011;11523;50.390;8.072;2023-03-01T00:27:02;21.52;;;14.43;;
22711;SDS011;11523;50.390;8.072;2023-03-01T00:29:28;22.38;;;14.80;;
22711;SDS011;11523;50.390;8.072;2023-03-01T00:31:54;22.63;;;14.05;;
22711;SDS011;11523;50.390;8.072;2023-03-01T00:34:20;21.80;;;13.63;;
22711;SDS011;11523;50.390;8.072;2023-03-01T00:36:45;20.55;;;13.52;;
22711;SDS011;11523;50.390;8.072;2023-03-01T00:39:13;24.10;;;15.73;;
22711;SDS011;11523;50.390;8.072;2023-03-01T00:41:39;23.13;;;14.88;;
22711;SDS011;11523;50.390;8.072;2023-03-01T00:44:05;23.00;;;14.73;;
22711;SDS011;11523;50.390;8.072;2023-03-01T00:46:31;28.63;;;15.55;;
22711;SDS011;11523;50.390;8.072;2023-03-01T00:48:58;25.13;;;15.48;;
22711;SDS011;11523;50.390;8.072;2023-03-01T00:51:27;26.15;;;14.73;;
22711;SDS011;11523;50.390;8.072;2023-03-01T00:53:58;24.48;;;15.73;;
22711;SDS011;11523;50.390;8.072;2023-03-01T00:56:25;24.80;;;15.07;;
22711;SDS011;11523;50.390;8.072;2023-03-01T00:58:51;20.63;;;13.73;;
22711;SDS011;11523;50.390;8.072;2023-03-01T01:01:18;20.13;;;13.48;;
22711;SDS011;11523;50.390;8.072;2023-03-01T01:03:55;20.48;;;13.25;;
22711;SDS011;11523;50.390;8.072;2023-03-01T01:06:23;20.90;;;12.90;;
22711;SDS011;11523;50.390;8.072;2023-03-01T01:08:50;22.98;;;13.20;;
22711;SDS011;11523;50.390;8.072;2023-03-01T01:11:16;18.38;;;13.18;;
22711;SDS011;11523;50.390;8.072;2023-03-01T01:13:43;22.00;;;14.05;;
22711;SDS011;11523;50.390;8.072;2023-03-01T01:16:09;19.77;;;13.75;;
22711;SDS011;11523;50.390;8.072;2023-03-01T01:18:35;22.27;;;13.77;;
22711;SDS011;11523;50.390;8.072;2023-03-01T01:21:03;20.95;;;13.07;;
22711;SDS011;11523;50.390;8.072;2023-03-01T01:23:29;21.27;;;12.68;;
22711;SDS011;11523;50.390;8.072;2023-03-01T01:25:55;17.50;;;12.63;;
22711;SDS011;11523;50.390;8.072;2023-03-01T01:28:21;19.90;;;13.10;;
22711;SDS011;11523;50.390;8.072;2023-03-01T01:30:47;17.10;;;13.07;;
22711;SDS011;11523;50.390;8.072;2023-03-01T01:33:13;18.02;;;13.07;;
22711;SDS011;11523;50.390;8.072;2023-03-01T01:35:39;19.25;;;12.38;;
22711;SDS011;11523;50.390;8.072;2023-03-01T01:38:04;16.70;;;12.35;;
22711;SDS011;11523;50.390;8.072;2023-03-01T01:40:30;17.27;;;12.63;;
22711;SDS011;11523;50.390;8.072;2023-03-01T01:42:56;18.05;;;12.68;;
22711;SDS011;11523;50.390;8.072;2023-03-01T01:45:31;19.73;;;12.73;;
22711;SDS011;11523;50.390;8.072;2023-03-01T01:48:04;20.45;;;12.27;;
22711;SDS011;11523;50.390;8.072;2023-03-01T01:50:32;19.10;;;12.80;;
22711;SDS011;11523;50.390;8.072;2023-03-01T01:53:04;17.58;;;12.82;;
22711;SDS011;11523;50.390;8.072;2023-03-01T01:55:30;18.65;;;13.52;;
22711;SDS011;11523;50.390;8.072;2023-03-01T01:57:58;17.80;;;13.10;;
22711;SDS011;11523;50.390;8.072;2023-03-01T02:00:26;20.30;;;13.02;;
22711;SDS011;11523;50.390;8.072;2023-03-01T02:03:03;19.30;;;13.52;;
22711;SDS011;11523;50.390;8.072;2023-03-01T02:05:35;20.00;;;12.88;;
22711;SDS011;11523;50.390;8.072;2023-03-01T02:08:03;21.25;;;13.52;;
22711;SDS011;11523;50.390;8.072;2023-03-01T02:10:29;22.38;;;14.18;;
22711;SDS011;11523;50.390;8.072;2023-03-01T02:12:55;23.77;;;13.73;;
22711;SDS011;11523;50.390;8.072;2023-03-01T02:15:22;19.80;;;13.60;;
22711;SDS011;11523;50.390;8.072;2023-03-01T02:17:48;19.17;;;13.27;;
22711;SDS011;11523;50.390;8.072;2023-03-01T02:20:21;20.02;;;13.45;;
22711;SDS011;11523;50.390;8.072;2023-03-01T02:27:49;19.73;;;13.20;;
22711;SDS011;11523;50.390;8.072;2023-03-01T02:32:43;24.05;;;12.75;;
22711;SDS011;11523;50.390;8.072;2023-03-01T02:35:13;18.23;;;13.15;;
22711;SDS011;11523;50.390;8.072;2023-03-01T02:37:40;20.35;;;13.02;;
22711;SDS011;11523;50.390;8.072;2023-03-01T02:40:08;21.05;;;14.50;;
22711;SDS011;11523;50.390;8.072;2023-03-01T02:42:36;20.17;;;13.38;;
22711;SDS011;11523;50.390;8.072;2023-03-01T02:45:06;18.42;;;13.15;;
22711;SDS011;11523;50.390;8.072;2023-03-01T02:47:32;24.17;;;13.85;;
22711;SDS011;11523;50.390;8.072;2023-03-01T02:49:58;24.42;;;14.25;;
22711;SDS011;11523;50.390;8.072;2023-03-01T02:52:29;21.90;;;14.52;;
22711;SDS011;11523;50.390;8.072;2023-03-01T02:55:05;25.48;;;16.15;;
22711;SDS011;11523;50.390;8.072;2023-03-01T02:57:33;21.52;;;13.80;;
22711;SDS011;11523;50.390;8.072;2023-03-01T03:00:01;19.98;;;13.13;;
22711;SDS011;11523;50.390;8.072;2023-03-01T03:02:31;21.73;;;14.43;;
22711;SDS011;11523;50.390;8.072;2023-03-01T03:05:14;17.92;;;13.15;;
22711;SDS011;11523;50.390;8.072;2023-03-01T03:07:42;20.60;;;13.80;;
22711;SDS011;11523;50.390;8.072;2023-03-01T03:10:09;20.92;;;13.90;;
22711;SDS011;11523;50.390;8.072;2023-03-01T03:12:36;20.35;;;13.73;;
22711;SDS011;11523;50.390;8.072;2023-03-01T03:15:03;21.13;;;13.63;;
22711;SDS011;11523;50.390;8.072;2023-03-01T03:17:33;21.15;;;14.00;;
22711;SDS011;11523;50.390;8.072;2023-03-01T03:19:59;20.40;;;14.50;;
22711;SDS011;11523;50.390;8.072;2023-03-01T03:22:25;21.13;;;14.73;;
22711;SDS011;11523;50.390;8.072;2023-03-01T03:24:53;20.77;;;13.32;;
22711;SDS011;11523;50.390;8.072;2023-03-01T03:27:19;17.75;;;14.07;;
22711;SDS011;11523;50.390;8.072;2023-03-01T03:29:45;18.00;;;13.32;;
22711;SDS011;11523;50.390;8.072;2023-03-01T03:32:11;20.23;;;13.60;;
22711;SDS011;11523;50.390;8.072;2023-03-01T03:34:37;22.30;;;13.63;;
22711;SDS011;11523;50.390;8.072;2023-03-01T03:37:03;20.73;;;13.68;;
22711;SDS011;11523;50.390;8.072;2023-03-01T03:39:49;19.60;;;13.57;;
22711;SDS011;11523;50.390;8.072;2023-03-01T03:42:14;19.98;;;14.35;;
22711;SDS011;11523;50.390;8.072;2023-03-01T03:44:40;18.38;;;13.52;;
22711;SDS011;11523;50.390;8.072;2023-03-01T03:47:06;22.65;;;14.43;;
22711;SDS011;11523;50.390;8.072;2023-03-01T03:49:33;18.95;;;13.20;;
22711;SDS011;11523;50.390;8.072;2023-03-01T03:51:59;23.92;;;14.23;;
22711;SDS011;11523;50.390;8.072;2023-03-01T03:54:25;22.13;;;14.70;;
22711;SDS011;11523;50.390;8.072;2023-03-01T03:56:50;20.23;;;13.43;;
22711;SDS011;11523;50.390;8.072;2023-03-01T03:59:16;20.13;;;14.07;;
22711;SDS011;11523;50.390;8.072;2023-03-01T04:01:42;20.33;;;14.23;;
22711;SDS011;11523;50.390;8.072;2023-03-01T04:04:10;23.35;;;15.32;;
22711;SDS011;11523;50.390;8.072;2023-03-01T04:06:35;19.90;;;14.18;;
22711;SDS011;11523;50.390;8.072;2023-03-01T04:09:01;20.20;;;14.32;;
22711;SDS011;11523;50.390;8.072;2023-03-01T04:11:28;20.80;;;13.95;;
22711;SDS011;11523;50.390;8.072;2023-03-01T04:13:55;27.35;;;15.13;;
22711;SDS011;11523;50.390;8.072;2023-03-01T04:16:27;21.15;;;14.40;;
22711;SDS011;11523;50.390;8.072;2023-03-01T04:18:54;21.20;;;14.60;;
22711;SDS011;11523;50.390;8.072;2023-03-01T04:21:20;23.20;;;14.75;;
22711;SDS011;11523;50.390;8.072;2023-03-01T04:23:46;24.85;;;16.42;;
22711;SDS011;11523;50.390;8.072;2023-03-01T04:26:12;23.15;;;15.48;;
22711;SDS011;11523;50.390;8.072;2023-03-01T04:28:38;23.27;;;15.20;;
22711;SDS011;11523;50.390;8.072;2023-03-01T04:31:09;21.55;;;14.70;;
22711;SDS011;11523;50.390;8.072;2023-03-01T04:33:39;22.52;;;14.50;;
22711;SDS011;11523;50.390;8.072;2023-03-01T04:36:05;23.25;;;14.18;;
22711;SDS011;11523;50.390;8.072;2023-03-01T04:38:38;20.60;;;14.73;;
22711;SDS011;11523;50.390;8.072;2023-03-01T04:41:08;23.95;;;15.25;;
22711;SDS011;11523;50.390;8.072;2023-03-01T04:43:34;18.73;;;14.60;;
22711;SDS011;11523;50.390;8.072;2023-03-01T04:46:05;21.17;;;14.80;;
22711;SDS011;11523;50.390;8.072;2023-03-01T04:48:33;21.20;;;14.48;;
22711;SDS011;11523;50.390;8.072;2023-03-01T04:50:59;19.77;;;14.10;;
22711;SDS011;11523;50.390;8.072;2023-03-01T04:53:25;24.13;;;14.55;;
22711;SDS011;11523;50.390;8.072;2023-03-01T04:55:51;23.27;;;15.00;;
22711;SDS011;11523;50.390;8.072;2023-03-01T04:58:17;22.40;;;15.18;;
22711;SDS011;11523;50.390;8.072;2023-03-01T05:00:43;23.55;;;15.77;;
22711;SDS011;11523;50.390;8.072;2023-03-01T05:03:09;25.80;;;16.27;;
22711;SDS011;11523;50.390;8.072;2023-03-01T05:05:36;22.90;;;15.57;;
22711;SDS011;11523;50.390;8.072;2023-03-01T05:08:03;22.10;;;15.52;;
22711;SDS011;11523;50.390;8.072;2023-03-01T05:10:30;20.90;;;14.93;;
22711;SDS011;11523;50.390;8.072;2023-03-01T05:12:57;22.50;;;15.40;;
22711;SDS011;11523;50.390;8.072;2023-03-01T05:15:23;22.50;;;15.88;;
22711;SDS011;11523;50.390;8.072;2023-03-01T05:17:50;23.08;;;14.73;;
22711;SDS011;11523;50.390;8.072;2023-03-01T05:20:16;24.60;;;15.10;;
22711;SDS011;11523;50.390;8.072;2023-03-01T05:22:43;23.75;;;15.27;;
22711;SDS011;11523;50.390;8.072;2023-03-01T05:25:09;27.10;;;15.88;;
22711;SDS011;11523;50.390;8.072;2023-03-01T05:27:35;24.90;;;14.95;;
22711;SDS011;11523;50.390;8.072;2023-03-01T05:30:01;24.65;;;15.60;;
22711;SDS011;11523;50.390;8.072;2023-03-01T05:32:39;22.15;;;14.70;;
22711;SDS011;11523;50.390;8.072;2023-03-01T05:35:05;24.35;;;15.50;;
22711;SDS011;11523;50.390;8.072;2023-03-01T05:37:31;23.05;;;15.73;;
22711;SDS011;11523;50.390;8.072;2023-03-01T05:39:57;25.73;;;15.98;;
22711;SDS011;11523;50.390;8.072;2023-03-01T05:42:23;22.73;;;14.75;;
22711;SDS011;11523;50.390;8.072;2023-03-01T05:44:48;21.75;;;14.93;;
22711;SDS011;11523;50.390;8.072;2023-03-01T05:47:14;22.90;;;16.15;;
22711;SDS011;11523;50.390;8.072;2023-03-01T05:49:40;25.45;;;17.30;;
22711;SDS011;11523;50.390;8.072;2023-03-01T05:52:07;26.08;;;16.30;;
22711;SDS011;11523;50.390;8.072;2023-03-01T05:54:33;22.77;;;16.30;;
22711;SDS011;11523;50.390;8.072;2023-03-01T05:56:59;22.85;;;16.05;;
22711;SDS011;11523;50.390;8.072;2023-03-01T05:59:25;22.50;;;15.20;;
22711;SDS011;11523;50.390;8.072;2023-03-01T06:01:51;23.92;;;15.75;;
22711;SDS011;11523;50.390;8.072;2023-03-01T06:04:17;24.80;;;15.30;;
22711;SDS011;11523;50.390;8.072;2023-03-01T06:06:43;29.55;;;16.30;;
22711;SDS011;11523;50.390;8.072;2023-03-01T06:09:08;23.92;;;15.70;;
22711;SDS011;11523;50.390;8.072;2023-03-01T06:11:35;29.88;;;19.85;;
22711;SDS011;11523;50.390;8.072;2023-03-01T06:14:01;27.17;;;17.13;;
22711;SDS011;11523;50.390;8.072;2023-03-01T06:16:27;26.77;;;16.30;;
22711;SDS011;11523;50.390;8.072;2023-03-01T06:18:53;26.40;;;17.40;;
22711;SDS011;11523;50.390;8.072;2023-03-01T06:21:19;25.98;;;16.90;;
22711;SDS011;11523;50.390;8.072;2023-03-01T06:23:45;27.73;;;15.80;;
22711;SDS011;11523;50.390;8.072;2023-03-01T06:26:10;26.27;;;17.60;;
22711;SDS011;11523;50.390;8.072;2023-03-01T06:28:36;27.63;;;16.90;;
22711;SDS011;11523;50.390;8.072;2023-03-01T06:31:02;25.15;;;17.42;;
22711;SDS011;11523;50.390;8.072;2023-03-01T06:33:29;25.88;;;15.57;;
22711;SDS011;11523;50.390;8.072;2023-03-01T06:35:55;27.40;;;17.42;;
22711;SDS011;11523;50.390;8.072;2023-03-01T06:38:21;27.83;;;16.70;;
22711;SDS011;11523;50.390;8.072;2023-03-01T06:40:54;25.48;;;16.83;;
22711;SDS011;11523;50.390;8.072;2023-03-01T06:43:21;27.42;;;17.17;;
22711;SDS011;11523;50.390;8.072;2023-03-01T06:45:48;28.52;;;18.23;;
22711;SDS011;11523;50.390;8.072;2023-03-01T06:48:14;26.27;;;16.88;;
22711;SDS011;11523;50.390;8.072;2023-03-01T06:50:40;25.63;;;16.67;;
22711;SDS011;11523;50.390;8.072;2023-03-01T06:53:06;24.70;;;16.98;;
22711;SDS011;11523;50.390;8.072;2023-03-01T06:55:31;25.90;;;17.15;;
22711;SDS011;11523;50.390;8.072;2023-03-01T06:57:58;28.45;;;18.23;;
22711;SDS011;11523;50.390;8.072;2023-03-01T07:00:24;40.67;;;23.25;;
22711;SDS011;11523;50.390;8.072;2023-03-01T07:02:51;34.22;;;21.77;;
22711;SDS011;11523;50.390;8.072;2023-03-01T07:05:17;33.78;;;21.63;;
22711;SDS011;11523;50.390;8.072;2023-03-01T07:07:43;37.97;;;23.20;;
22711;SDS011;11523;50.390;8.072;2023-03-01T07:10:09;32.58;;;21.45;;
22711;SDS011;11523;50.390;8.072;2023-03-01T07:12:35;37.08;;;22.17;;
22711;SDS011;11523;50.390;8.072;2023-03-01T07:15:01;32.38;;;20.38;;
22711;SDS011;11523;50.390;8.072;2023-03-01T07:17:27;28.40;;;19.25;;
22711;SDS011;11523;50.390;8.072;2023-03-01T07:19:53;30.23;;;18.17;;
22711;SDS011;11523;50.390;8.072;2023-03-01T07:22:19;28.05;;;17.33;;
22711;SDS011;11523;50.390;8.072;2023-03-01T07:24:45;29.90;;;18.00;;
22711;SDS011;11523;50.390;8.072;2023-03-01T07:27:11;27.75;;;18.35;;
22711;SDS011;11523;50.390;8.072;2023-03-01T07:29:37;33.28;;;18.98;;
22711;SDS011;11523;50.390;8.072;2023-03-01T07:32:03;30.63;;;17.85;;
22711;SDS011;11523;50.390;8.072;2023-03-01T07:34:29;29.35;;;17.70;;
22711;SDS011;11523;50.390;8.072;2023-03-01T07:36:55;27.63;;;18.08;;
22711;SDS011;11523;50.390;8.072;2023-03-01T07:39:21;29.20;;;17.90;;
22711;SDS011;11523;50.390;8.072;2023-03-01T07:41:50;29.38;;;17.80;;
22711;SDS011;11523;50.390;8.072;2023-03-01T07:44:16;27.45;;;17.75;;
22711;SDS011;11523;50.390;8.072;2023-03-01T07:46:43;33.28;;;19.77;;
22711;SDS011;11523;50.390;8.072;2023-03-01T07:49:09;30.73;;;18.27;;
22711;SDS011;11523;50.390;8.072;2023-03-01T07:51:35;32.60;;;18.65;;
22711;SDS011;11523;50.390;8.072;2023-03-01T07:54:01;30.60;;;18.75;;
22711;SDS011;11523;50.390;8.072;2023-03-01T07:56:27;32.40;;;19.63;;
22711;SDS011;11523;50.390;8.072;2023-03-01T07:58:53;32.42;;;21.67;;
22711;SDS011;11523;50.390;8.072;2023-03-01T08:01:20;36.25;;;20.42;;
22711;SDS011;11523;50.390;8.072;2023-03-01T08:03:46;35.08;;;19.30;;
22711;SDS011;11523;50.390;8.072;2023-03-01T08:06:12;31.67;;;19.48;;
22711;SDS011;11523;50.390;8.072;2023-03-01T08:08:39;31.42;;;18.52;;
22711;SDS011;11523;50.390;8.072;2023-03-01T08:11:06;31.02;;;19.58;;
22711;SDS011;11523;50.390;8.072;2023-03-01T08:13:32;29.10;;;18.35;;
22711;SDS011;11523;50.390;8.072;2023-03-01T08:16:02;29.73;;;20.65;;
22711;SDS011;11523;50.390;8.072;2023-03-01T08:18:28;29.25;;;20.25;;
22711;SDS011;11523;50.390;8.072;2023-03-01T08:20:54;27.20;;;19.10;;
22711;SDS011;11523;50.390;8.072;2023-03-01T08:23:20;30.58;;;19.17;;
22711;SDS011;11523;50.390;8.072;2023-03-01T08:25:46;28.65;;;18.95;;
22711;SDS011;11523;50.390;8.072;2023-03-01T08:28:12;27.85;;;17.95;;
22711;SDS011;11523;50.390;8.072;2023-03-01T08:30:38;29.52;;;17.83;;
22711;SDS011;11523;50.390;8.072;2023-03-01T08:33:04;30.38;;;20.33;;
22711;SDS011;11523;50.390;8.072;2023-03-01T08:35:30;28.13;;;19.52;;
22711;SDS011;11523;50.390;8.072;2023-03-01T08:37:56;32.90;;;21.20;;
22711;SDS011;11523;50.390;8.072;2023-03-01T08:40:22;28.77;;;18.05;;
22711;SDS011;11523;50.390;8.072;2023-03-01T08:42:48;28.88;;;20.63;;
22711;SDS011;11523;50.390;8.072;2023-03-01T08:45:14;30.27;;;21.98;;
22711;SDS011;11523;50.390;8.072;2023-03-01T08:47:43;28.48;;;20.00;;
22711;SDS011;11523;50.390;8.072;2023-03-01T08:50:10;28.77;;;19.83;;
22711;SDS011;11523;50.390;8.072;2023-03-01T08:52:36;29.92;;;20.35;;
22711;SDS011;11523;50.390;8.072;2023-03-01T08:55:02;27.88;;;19.90;;
22711;SDS011;11523;50.390;8.072;2023-03-01T08:57:28;26.10;;;17.83;;
22711;SDS011;11523;50.390;8.072;2023-03-01T08:59:53;27.48;;;19.20;;
22711;SDS011;11523;50.390;8.072;2023-03-01T09:02:21;25.48;;;19.25;;
22711;SDS011;11523;50.390;8.072;2023-03-01T09:04:47;27.02;;;19.52;;
22711;SDS011;11523;50.390;8.072;2023-03-01T09:07:19;27.60;;;18.75;;
22711;SDS011;11523;50.390;8.072;2023-03-01T09:09:45;27.02;;;18.67;;
22711;SDS011;11523;50.390;8.072;2023-03-01T09:12:11;25.77;;;18.75;;
22711;SDS011;11523;50.390;8.072;2023-03-01T09:14:37;27.05;;;17.88;;
22711;SDS011;11523;50.390;8.072;2023-03-01T09:17:03;24.23;;;18.02;;
22711;SDS011;11523;50.390;8.072;2023-03-01T09:19:29;25.83;;;18.60;;
22711;SDS011;11523;50.390;8.072;2023-03-01T09:21:55;24.23;;;16.27;;
22711;SDS011;11523;50.390;8.072;2023-03-01T09:24:23;21.58;;;16.52;;
22711;SDS011;11523;50.390;8.072;2023-03-01T09:26:51;24.42;;;16.80;;
22711;SDS011;11523;50.390;8.072;2023-03-01T09:29:18;23.88;;;16.73;;
22711;SDS011;11523;50.390;8.072;2023-03-01T09:31:44;22.70;;;15.70;;
22711;SDS011;11523;50.390;8.072;2023-03-01T09:34:10;21.92;;;16.55;;
22711;SDS011;11523;50.390;8.072;2023-03-01T09:36:36;23.17;;;15.23;;
22711;SDS011;11523;50.390;8.072;2023-03-01T09:39:02;22.65;;;16.73;;
22711;SDS011;11523;50.390;8.072;2023-03-01T09:41:36;23.73;;;15.70;;
22711;SDS011;11523;50.390;8.072;2023-03-01T09:44:11;21.25;;;14.32;;
22711;SDS011;11523;50.390;8.072;2023-03-01T09:46:43;20.33;;;13.98;;
22711;SDS011;11523;50.390;8.072;2023-03-01T09:49:19;21.52;;;14.65;;
22711;SDS011;11523;50.390;8.072;2023-03-01T09:54:33;21.05;;;15.18;;
22711;SDS011;11523;50.390;8.072;2023-03-01T09:57:18;20.95;;;16.60;;
22711;SDS011;11523;50.390;8.072;2023-03-01T09:59:48;24.85;;;15.75;;
22711;SDS011;11523;50.390;8.072;2023-03-01T10:04:54;18.95;;;14.23;;
22711;SDS011;11523;50.390;8.072;2023-03-01T10:07:27;19.08;;;13.50;;
22711;SDS011;11523;50.390;8.072;2023-03-01T10:09:53;19.98;;;13.45;;
22711;SDS011;11523;50.390;8.072;2023-03-01T10:12:20;19.55;;;15.07;;
22711;SDS011;11523;50.390;8.072;2023-03-01T10:14:51;19.35;;;14.52;;
22711;SDS011;11523;50.390;8.072;2023-03-01T10:19:46;19.27;;;14.35;;
22711;SDS011;11523;50.390;8.072;2023-03-01T10:22:19;21.63;;;13.93;;
22711;SDS011;11523;50.390;8.072;2023-03-01T10:24:48;20.45;;;13.48;;
22711;SDS011;11523;50.390;8.072;2023-03-01T10:27:22;17.63;;;13.73;;
22711;SDS011;11523;50.390;8.072;2023-03-01T10:32:34;16.60;;;13.43;;
22711;SDS011;11523;50.390;8.072;2023-03-01T10:35:00;19.83;;;14.90;;
22711;SDS011;11523;50.390;8.072;2023-03-01T10:37:26;16.92;;;12.63;;
22711;SDS011;11523;50.390;8.072;2023-03-01T10:40:06;18.25;;;14.40;;
22711;SDS011;11523;50.390;8.072;2023-03-01T10:42:34;17.42;;;13.27;;
22711;SDS011;11523;50.390;8.072;2023-03-01T10:45:17;15.25;;;12.18;;
22711;SDS011;11523;50.390;8.072;2023-03-01T10:48:02;16.63;;;12.20;;
22711;SDS011;11523;50.390;8.072;2023-03-01T10:50:28;17.80;;;12.02;;
22711;SDS011;11523;50.390;8.072;2023-03-01T10:52:59;19.75;;;13.43;;
22711;SDS011;11523;50.390;8.072;2023-03-01T10:55:35;17.80;;;14.00;;
22711;SDS011;11523;50.390;8.072;2023-03-01T10:58:09;15.48;;;12.05;;
22711;SDS011;11523;50.390;8.072;2023-03-01T11:00:45;16.40;;;12.02;;
22711;SDS011;11523;50.390;8.072;2023-03-01T11:03:12;14.75;;;12.98;;
22711;SDS011;11523;50.390;8.072;2023-03-01T11:08:41;15.25;;;12.32;;
22711;SDS011;11523;50.390;8.072;2023-03-01T11:11:16;15.05;;;13.00;;
22711;SDS011;11523;50.390;8.072;2023-03-01T11:16:28;17.83;;;14.13;;
22711;SDS011;11523;50.390;8.072;2023-03-01T11:19:04;16.23;;;13.27;;
22711;SDS011;11523;50.390;8.072;2023-03-01T11:21:30;15.73;;;13.30;;
22711;SDS011;11523;50.390;8.072;2023-03-01T11:23:59;16.52;;;13.23;;
22711;SDS011;11523;50.390;8.072;2023-03-01T11:26:27;16.23;;;13.13;;
22711;SDS011;11523;50.390;8.072;2023-03-01T11:28:55;17.35;;;11.95;;
22711;SDS011;11523;50.390;8.072;2023-03-01T11:31:22;16.48;;;12.65;;
22711;SDS011;11523;50.390;8.072;2023-03-01T11:33:53;15.13;;;11.63;;
22711;SDS011;11523;50.390;8.072;2023-03-01T11:38:53;15.25;;;11.25;;
22711;SDS011;11523;50.390;8.072;2023-03-01T11:41:24;15.38;;;11.55;;
22711;SDS011;11523;50.390;8.072;2023-03-01T11:44:01;14.80;;;11.90;;
22711;SDS011;11523;50.390;8.072;2023-03-01T11:51:45;14.15;;;11.43;;
22711;SDS011;11523;50.390;8.072;2023-03-01T11:56:47;12.75;;;10.70;;
22711;SDS011;11523;50.390;8.072;2023-03-01T11:59:57;13.10;;;10.20;;
22711;SDS011;11523;50.390;8.072;2023-03-01T12:02:12;13.02;;;11.23;;
22711;SDS011;11523;50.390;8.072;2023-03-01T12:07:21;12.63;;;10.82;;
22711;SDS011;11523;50.390;8.072;2023-03-01T12:25:45;14.88;;;11.60;;
22711;SDS011;11523;50.390;8.072;2023-03-01T12:31:03;12.52;;;10.35;;
22711;SDS011;11523;50.390;8.072;2023-03-01T12:38:42;11.30;;;10.05;;
22711;SDS011;11523;50.390;8.072;2023-03-01T12:48:47;12.07;;;9.65;;
22711;SDS011;11523;50.390;8.072;2023-03-01T12:51:15;12.05;;;9.88;;
22711;SDS011;11523;50.390;8.072;2023-03-01T12:53:49;12.95;;;9.32;;
22711;SDS011;11523;50.390;8.072;2023-03-01T12:56:23;11.85;;;9.38;;
22711;SDS011;11523;50.390;8.072;2023-03-01T12:59:37;8.83;;;7.07;;
22711;SDS011;11523;50.390;8.072;2023-03-01T13:06:50;12.32;;;9.52;;
22711;SDS011;11523;50.390;8.072;2023-03-01T13:12:41;10.65;;;9.55;;
22711;SDS011;11523;50.390;8.072;2023-03-01T13:14:50;13.88;;;9.60;;
22711;SDS011;11523;50.390;8.072;2023-03-01T13:17:40;11.65;;;9.18;;
22711;SDS011;11523;50.390;8.072;2023-03-01T13:20:12;10.55;;;8.82;;
22711;SDS011;11523;50.390;8.072;2023-03-01T13:22:38;11.20;;;9.60;;
22711;SDS011;11523;50.390;8.072;2023-03-01T13:25:15;10.25;;;9.13;;
22711;SDS011;11523;50.390;8.072;2023-03-01T13:27:42;11.75;;;9.52;;
22711;SDS011;11523;50.390;8.072;2023-03-01T13:32:53;10.18;;;8.77;;
22711;SDS011;11523;50.390;8.072;2023-03-01T13:35:43;10.65;;;9.18;;
22711;SDS011;11523;50.390;8.072;2023-03-01T13:43:27;9.90;;;8.82;;
22711;SDS011;11523;50.390;8.072;2023-03-01T13:45:53;10.77;;;9.07;;
22711;SDS011;11523;50.390;8.072;2023-03-01T13:48:24;10.48;;;8.98;;
22711;SDS011;11523;50.390;8.072;2023-03-01T13:50:56;12.15;;;8.65;;
22711;SDS011;11523;50.390;8.072;2023-03-01T13:53:24;10.32;;;8.80;;
22711;SDS011;11523;50.390;8.072;2023-03-01T13:55:52;12.07;;;8.95;;
22711;SDS011;11523;50.390;8.072;2023-03-01T14:00:46;9.85;;;8.65;;
22711;SDS011;11523;50.390;8.072;2023-03-01T14:03:13;13.95;;;8.75;;
22711;SDS011;11523;50.390;8.072;2023-03-01T14:05:40;9.52;;;8.43;;
22711;SDS011;11523;50.390;8.072;2023-03-01T14:08:40;11.73;;;8.70;;
22711;SDS011;11523;50.390;8.072;2023-03-01T14:16:32;13.70;;;8.77;;
22711;SDS011;11523;50.390;8.072;2023-03-01T14:21:27;11.73;;;8.68;;
22711;SDS011;11523;50.390;8.072;2023-03-01T14:23:53;13.68;;;9.00;;
22711;SDS011;11523;50.390;8.072;2023-03-01T14:26:22;11.50;;;9.05;;
22711;SDS011;11523;50.390;8.072;2023-03-01T14:28:49;12.63;;;8.60;;
22711;SDS011;11523;50.390;8.072;2023-03-01T14:34:00;9.60;;;8.48;;
22711;SDS011;11523;50.390;8.072;2023-03-01T14:36:28;10.93;;;8.50;;
22711;SDS011;11523;50.390;8.072;2023-03-01T14:38:54;11.38;;;8.90;;
22711;SDS011;11523;50.390;8.072;2023-03-01T14:41:21;15.18;;;8.70;;
22711;SDS011;11523;50.390;8.072;2023-03-01T14:43:49;12.20;;;8.57;;
22711;SDS011;11523;50.390;8.072;2023-03-01T14:46:23;12.55;;;9.13;;
22711;SDS011;11523;50.390;8.072;2023-03-01T14:51:16;9.50;;;8.25;;
22711;SDS011;11523;50.390;8.072;2023-03-01T14:53:42;11.18;;;9.27;;
22711;SDS011;11523;50.390;8.072;2023-03-01T14:56:15;11.85;;;9.05;;
22711;SDS011;11523;50.390;8.072;2023-03-01T14:58:51;13.20;;;8.20;;
22711;SDS011;11523;50.390;8.072;2023-03-01T15:01:17;11.05;;;8.15;;
22711;SDS011;11523;50.390;8.072;2023-03-01T15:03:47;12.00;;;8.60;;
22711;SDS011;11523;50.390;8.072;2023-03-01T15:06:18;9.93;;;8.02;;
22711;SDS011;11523;50.390;8.072;2023-03-01T15:08:46;11.10;;;8.32;;
22711;SDS011;11523;50.390;8.072;2023-03-01T15:16:13;11.20;;;8.18;;
22711;SDS011;11523;50.390;8.072;2023-03-01T15:18:44;10.38;;;7.78;;
22711;SDS011;11523;50.390;8.072;2023-03-01T15:21:21;11.45;;;8.23;;
22711;SDS011;11523;50.390;8.072;2023-03-01T15:23:49;9.35;;;8.07;;
22711;SDS011;11523;50.390;8.072;2023-03-01T15:26:25;9.02;;;7.53;;
22711;SDS011;11523;50.390;8.072;2023-03-01T15:28:54;10.43;;;8.68;;
22711;SDS011;11523;50.390;8.072;2023-03-01T15:31:32;10.23;;;8.05;;
22711;SDS011;11523;50.390;8.072;2023-03-01T15:34:10;10.13;;;7.95;;
22711;SDS011;11523;50.390;8.072;2023-03-01T15:36:44;9.35;;;7.63;;
22711;SDS011;11523;50.390;8.072;2023-03-01T15:39:27;11.85;;;7.78;;
22711;SDS011;11523;50.390;8.072;2023-03-01T15:41:55;10.23;;;7.60;;
22711;SDS011;11523;50.390;8.072;2023-03-01T15:46:50;10.10;;;7.95;;
22711;SDS011;11523;50.390;8.072;2023-03-01T15:49:36;9.68;;;7.80;;
22711;SDS011;11523;50.390;8.072;2023-03-01T15:52:03;9.30;;;7.97;;
22711;SDS011;11523;50.390;8.072;2023-03-01T15:54:29;10.75;;;7.45;;
22711;SDS011;11523;50.390;8.072;2023-03-01T15:56:55;10.32;;;7.35;;
22711;SDS011;11523;50.390;8.072;2023-03-01T15:59:22;9.55;;;7.40;;
22711;SDS011;11523;50.390;8.072;2023-03-01T16:01:48;10.40;;;8.13;;
22711;SDS011;11523;50.390;8.072;2023-03-01T16:04:15;10.23;;;7.97;;
22711;SDS011;11523;50.390;8.072;2023-03-01T16:06:53;10.45;;;7.80;;
22711;SDS011;11523;50.390;8.072;2023-03-01T16:09:23;10.82;;;7.63;;
22711;SDS011;11523;50.390;8.072;2023-03-01T16:11:49;8.70;;;7.68;;
22711;SDS011;11523;50.390;8.072;2023-03-01T16:14:16;8.45;;;7.28;;
22711;SDS011;11523;50.390;8.072;2023-03-01T16:16:42;8.88;;;7.50;;